createdAt,value
2019-01-22T00:00:26.206Z,-2.12
2019-01-22T00:02:28.067Z,-2.18
2019-01-22T00:04:29.430Z,-2.12
2019-01-22T00:09:53.828Z,-2.05
2019-01-22T00:11:55.169Z,-2.14
2019-01-22T00:13:56.560Z,-2.21
2019-01-22T00:15:57.916Z,-2.36
2019-01-22T00:17:59.272Z,-2.25
2019-01-22T00:20:00.634Z,-2.16
2019-01-22T00:22:02.099Z,-2.06
2019-01-22T00:24:03.875Z,-2.12
2019-01-22T00:26:05.214Z,-2.29
2019-01-22T00:28:06.586Z,-2.16
2019-01-22T00:30:13.441Z,-2.05
2019-01-22T00:32:14.807Z,-2.23
2019-01-22T00:34:16.466Z,-2.15
2019-01-22T00:36:18.101Z,-2.31
2019-01-22T00:38:19.488Z,-2.34
2019-01-22T00:40:20.825Z,-2.32
2019-01-22T00:42:22.239Z,-2.25
2019-01-22T00:44:24.853Z,-2.24
2019-01-22T00:46:26.221Z,-2.16
2019-01-22T00:48:27.569Z,-2.22
2019-01-22T00:50:28.933Z,-2.08
2019-01-22T00:52:30.793Z,-2.20
2019-01-22T00:54:32.170Z,-2.21
2019-01-22T00:56:33.583Z,-2.27
2019-01-22T00:58:34.951Z,-2.38
2019-01-22T01:00:36.307Z,-2.36
2019-01-22T01:02:37.665Z,-2.12
2019-01-22T01:04:39.221Z,-2.23
2019-01-22T01:06:40.569Z,-2.31
2019-01-22T01:08:42.222Z,-2.31
2019-01-22T01:10:43.862Z,-2.16
2019-01-22T01:12:45.417Z,-2.11
2019-01-22T01:14:46.881Z,-2.07
2019-01-22T01:16:48.239Z,-2.33
2019-01-22T01:18:49.572Z,-2.25
2019-01-22T01:20:50.964Z,-2.27
2019-01-22T01:22:52.339Z,-2.33
2019-01-22T01:24:53.707Z,-2.28
2019-01-22T01:26:55.488Z,-2.39
2019-01-22T01:28:57.345Z,-2.23
2019-01-22T01:30:58.676Z,-2.47
2019-01-22T01:33:00.036Z,-2.58
2019-01-22T01:35:01.477Z,-2.68
2019-01-22T01:37:03.112Z,-2.68
2019-01-22T01:39:04.487Z,-2.65
2019-01-22T01:41:06.041Z,-2.67
2019-01-22T01:43:07.385Z,-2.70
2019-01-22T01:45:09.030Z,-2.65
2019-01-22T01:47:10.493Z,-2.88
2019-01-22T01:49:11.850Z,-2.76
2019-01-22T01:51:13.222Z,-2.81
2019-01-22T01:53:14.592Z,-2.83
2019-01-22T01:55:16.832Z,-2.82
2019-01-22T01:57:18.213Z,-3.06
2019-01-22T01:59:19.574Z,-3.08
2019-01-22T02:01:22.207Z,-2.79
2019-01-22T02:03:23.572Z,-3.01
2019-01-22T02:05:24.966Z,-3.11
2019-01-22T02:07:26.376Z,-3.13
2019-01-22T02:09:27.752Z,-3.19
2019-01-22T02:11:29.103Z,-3.25
2019-01-22T02:13:31.255Z,-3.19
2019-01-22T02:15:38.359Z,-3.22
2019-01-22T02:17:53.962Z,-3.22
2019-01-22T02:20:19.296Z,-3.17
2019-01-22T02:22:44.437Z,-3.27
2019-01-22T02:24:54.093Z,-3.31
2019-01-22T02:27:09.651Z,-3.28
2019-01-22T02:29:25.710Z,-3.32
2019-01-22T02:31:50.695Z,-3.38
2019-01-22T02:34:01.063Z,-3.29
2019-01-22T02:36:43.366Z,-3.37
2019-01-22T02:39:02.102Z,-3.42
2019-01-22T02:41:14.716Z,-3.48
2019-01-22T02:43:24.690Z,-3.47
2019-01-22T02:46:09.354Z,-3.49
2019-01-22T02:48:19.632Z,-3.39
2019-01-22T02:50:42.067Z,-3.46
2019-01-22T02:53:06.840Z,-3.43
2019-01-22T02:55:13.911Z,-3.53
2019-01-22T02:58:08.062Z,-3.52
2019-01-22T03:00:17.836Z,-3.73
2019-01-22T03:02:44.445Z,-3.59
2019-01-22T03:05:06.602Z,-3.60
2019-01-22T03:07:35.254Z,-3.55
2019-01-22T03:10:20.148Z,-3.66
2019-01-22T03:12:57.093Z,-3.74
2019-01-22T03:15:39.074Z,-3.76
2019-01-22T03:17:58.048Z,-3.80
2019-01-22T03:20:14.035Z,-3.91
2019-01-22T03:22:56.567Z,-3.85
2019-01-22T03:25:30.575Z,-3.97
2019-01-22T03:27:52.866Z,-4.02
2019-01-22T03:30:20.932Z,-3.93
2019-01-22T03:33:22.080Z,-4.18
2019-01-22T03:36:05.115Z,-3.97
2019-01-22T03:39:06.154Z,-4.17
2019-01-22T03:41:49.198Z,-4.06
2019-01-22T03:44:50.258Z,-3.73
2019-01-22T03:47:33.295Z,-3.72
2019-01-22T03:50:16.024Z,-4.21
2019-01-22T03:52:59.513Z,-4.13
2019-01-22T03:56:00.513Z,-4.17
2019-01-22T03:58:21.811Z,-4.22
2019-01-22T04:00:43.112Z,-3.96
2019-01-22T04:03:04.480Z,-4.29
2019-01-22T04:05:25.783Z,-3.81
2019-01-22T04:07:47.050Z,-3.94
2019-01-22T04:10:30.243Z,-4.03
2019-01-22T04:12:51.518Z,-4.13
2019-01-22T04:15:34.593Z,-4.08
2019-01-22T04:17:55.993Z,-4.08
2019-01-22T04:20:17.353Z,-4.41
2019-01-22T04:22:38.612Z,-4.24
2019-01-22T04:25:40.260Z,-4.55
2019-01-22T04:28:23.293Z,-4.61
2019-01-22T04:34:38.407Z,-4.77
2019-01-22T04:37:21.608Z,-4.42
2019-01-22T04:40:22.634Z,-4.79
2019-01-22T04:43:05.710Z,-4.72
2019-01-22T04:45:48.752Z,-4.45
2019-01-22T04:48:32.146Z,-4.88
2019-01-22T04:51:15.173Z,-4.92
2019-01-22T04:53:46.726Z,-4.60
2019-01-22T04:55:56.745Z,-4.71
2019-01-22T04:58:04.355Z,-4.69
2019-01-22T05:00:48.253Z,-4.67
2019-01-22T05:02:58.341Z,-4.68
2019-01-22T05:05:25.108Z,-4.71
2019-01-22T05:07:41.456Z,-4.68
2019-01-22T05:10:00.519Z,-4.68
2019-01-22T05:12:22.212Z,-4.70
2019-01-22T05:14:49.926Z,-4.75
2019-01-22T05:17:02.728Z,-4.81
2019-01-22T05:19:15.763Z,-4.85
2019-01-22T05:21:44.198Z,-4.90
2019-01-22T05:24:18.789Z,-4.93
2019-01-22T05:26:50.163Z,-4.93
2019-01-22T05:29:25.713Z,-5.01
2019-01-22T05:31:45.185Z,-4.95
2019-01-22T05:34:13.354Z,-4.88
2019-01-22T05:36:48.902Z,-4.88
2019-01-22T05:39:13.503Z,-4.90
2019-01-22T05:41:44.364Z,-4.99
2019-01-22T05:44:24.803Z,-5.05
2019-01-22T05:47:16.399Z,-5.05
2019-01-22T05:49:55.206Z,-5.10
2019-01-22T05:52:08.507Z,-5.14
2019-01-22T05:54:25.125Z,-5.14
2019-01-22T05:56:33.215Z,-5.16
2019-01-22T05:59:10.419Z,-5.18
2019-01-22T06:01:17.507Z,-5.25
2019-01-22T06:03:27.633Z,-5.22
2019-01-22T06:06:06.395Z,-5.32
2019-01-22T06:08:35.173Z,-5.30
2019-01-22T06:10:57.334Z,-5.34
2019-01-22T06:13:13.617Z,-5.35
2019-01-22T06:15:44.695Z,-5.33
2019-01-22T06:18:22.009Z,-5.36
2019-01-22T06:20:49.374Z,-5.40
2019-01-22T06:23:25.395Z,-5.42
2019-01-22T06:25:59.535Z,-5.45
2019-01-22T06:28:27.570Z,-5.46
2019-01-22T06:30:57.044Z,-5.47
2019-01-22T06:33:04.193Z,-5.51
2019-01-22T06:35:18.538Z,-5.46
2019-01-22T06:37:37.461Z,-5.48
2019-01-22T06:39:44.597Z,-5.52
2019-01-22T06:42:20.971Z,-5.49
2019-01-22T06:45:10.573Z,-5.54
2019-01-22T06:47:26.711Z,-5.59
2019-01-22T06:49:39.561Z,-5.57
2019-01-22T06:52:13.016Z,-5.50
2019-01-22T06:54:26.080Z,-5.51
2019-01-22T06:56:36.393Z,-5.58
2019-01-22T06:58:58.877Z,-5.48
2019-01-22T07:01:23.320Z,-5.56
2019-01-22T07:03:42.499Z,-5.64
2019-01-22T07:06:17.043Z,-5.65
2019-01-22T07:09:08.809Z,-5.70
2019-01-22T07:11:33.646Z,-5.66
2019-01-22T07:14:18.913Z,-5.70
2019-01-22T07:16:29.351Z,-5.72
2019-01-22T07:18:39.619Z,-5.79
2019-01-22T07:20:58.221Z,-5.69
2019-01-22T07:23:23.075Z,-5.73
2019-01-22T07:26:02.071Z,-5.72
2019-01-22T07:28:38.903Z,-5.70
2019-01-22T07:31:06.662Z,-5.69
2019-01-22T07:33:33.362Z,-5.66
2019-01-22T07:35:52.495Z,-5.75
2019-01-22T07:37:59.709Z,-5.74
2019-01-22T07:40:30.904Z,-5.62
2019-01-22T07:42:50.338Z,-5.53
2019-01-22T07:45:12.635Z,-5.58
2019-01-22T07:47:22.294Z,-5.62
2019-01-22T07:50:09.127Z,-5.53
2019-01-22T07:52:31.429Z,-5.46
2019-01-22T07:55:06.178Z,-5.48
2019-01-22T07:57:47.723Z,-5.44
2019-01-22T08:00:00.939Z,-5.42
2019-01-22T08:02:24.304Z,-5.38
2019-01-22T08:05:10.904Z,-5.32
2019-01-22T08:07:25.869Z,-5.25
2019-01-22T08:09:56.902Z,-5.14
2019-01-22T08:12:26.759Z,-5.14
2019-01-22T08:14:48.703Z,-5.14
2019-01-22T08:17:19.549Z,-4.92
2019-01-22T08:19:47.372Z,-4.87
2019-01-22T08:22:29.763Z,-4.86
2019-01-22T08:25:01.068Z,-4.63
2019-01-22T08:27:20.298Z,-4.68
2019-01-22T08:29:41.907Z,-4.60
2019-01-22T08:31:57.848Z,-4.47
2019-01-22T08:34:50.946Z,-4.40
2019-01-22T08:37:06.980Z,-4.17
2019-01-22T08:39:23.501Z,-4.17
2019-01-22T08:42:02.042Z,-3.93
2019-01-22T08:44:30.273Z,-3.91
2019-01-22T08:46:37.375Z,-3.81
2019-01-22T08:48:55.986Z,-3.83
2019-01-22T08:51:27.261Z,-3.60
2019-01-22T08:53:37.074Z,-3.47
2019-01-22T08:56:14.163Z,-3.56
2019-01-22T08:58:35.919Z,-3.58
2019-01-22T09:00:55.349Z,-3.40
2019-01-22T09:03:08.261Z,-3.28
2019-01-22T09:05:24.575Z,-3.14
2019-01-22T09:07:43.856Z,-3.13
2019-01-22T09:10:12.724Z,-3.26
2019-01-22T09:12:19.831Z,-3.29
2019-01-22T09:14:39.329Z,-3.23
2019-01-22T09:17:09.102Z,-3.06
2019-01-22T09:19:28.418Z,-2.85
2019-01-22T09:22:00.079Z,-2.68
2019-01-22T09:24:07.154Z,-2.67
2019-01-22T09:26:14.414Z,-2.55
2019-01-22T09:28:38.586Z,-2.46
2019-01-22T09:30:51.701Z,-2.22
2019-01-22T09:33:10.935Z,-1.99
2019-01-22T09:35:36.086Z,-1.99
2019-01-22T09:37:39.156Z,-2.00
2019-01-22T09:39:40.550Z,-1.86
2019-01-22T09:41:41.922Z,-1.73
2019-01-22T09:43:43.509Z,-1.46
2019-01-22T09:45:44.879Z,-1.63
2019-01-22T09:47:46.345Z,-1.61
2019-01-22T09:49:47.842Z,-1.49
2019-01-22T09:51:49.304Z,-1.30
2019-01-22T09:53:50.676Z,-1.29
2019-01-22T09:55:52.074Z,-1.09
2019-01-22T09:57:53.428Z,-1.06
2019-01-22T09:59:54.833Z,-0.96
2019-01-22T10:01:56.202Z,-0.79
2019-01-22T10:04:03.389Z,-0.73
2019-01-22T10:06:00.956Z,-0.90
2019-01-22T10:08:02.316Z,-0.67
2019-01-22T10:10:15.088Z,-0.43
2019-01-22T10:12:16.454Z,-0.18
2019-01-22T10:14:17.806Z,-0.01
2019-01-22T10:16:19.435Z,-0.13
2019-01-22T10:18:20.829Z,0.03
2019-01-22T10:20:22.792Z,0.15
2019-01-22T10:22:24.169Z,0.22
2019-01-22T10:24:25.562Z,0.35
2019-01-22T10:26:26.968Z,0.32
2019-01-22T10:28:28.341Z,0.47
2019-01-22T10:30:29.750Z,0.44
2019-01-22T10:32:31.124Z,0.63
2019-01-22T10:34:32.545Z,0.74
2019-01-22T10:36:34.091Z,0.92
2019-01-22T10:38:35.458Z,0.82
2019-01-22T10:40:36.833Z,1.03
2019-01-22T10:42:38.237Z,1.23
2019-01-22T10:44:39.681Z,1.21
2019-01-22T10:46:41.051Z,1.10
2019-01-22T10:48:42.449Z,1.19
2019-01-22T10:50:43.811Z,1.20
2019-01-22T10:52:45.177Z,1.23
2019-01-22T10:54:46.568Z,1.29
2019-01-22T10:56:47.971Z,1.00
2019-01-22T10:58:49.338Z,1.40
2019-01-22T11:00:50.741Z,1.52
2019-01-22T11:02:52.198Z,1.58
2019-01-22T11:04:53.767Z,1.65
2019-01-22T11:06:55.162Z,1.76
2019-01-22T11:08:56.534Z,1.88
2019-01-22T11:10:57.951Z,2.00
2019-01-22T11:12:59.361Z,1.91
2019-01-22T11:15:02.853Z,1.99
2019-01-22T11:17:04.257Z,1.99
2019-01-22T11:19:05.660Z,2.10
2019-01-22T11:21:07.025Z,2.02
2019-01-22T11:23:08.380Z,2.29
2019-01-22T11:25:14.588Z,2.35
2019-01-22T11:27:15.952Z,2.49
2019-01-22T11:29:17.326Z,2.56
2019-01-22T11:31:18.723Z,2.39
2019-01-22T11:33:20.095Z,2.54
2019-01-22T11:35:23.567Z,2.62
2019-01-22T11:37:25.183Z,2.63
2019-01-22T11:39:26.549Z,2.57
2019-01-22T11:41:28.015Z,2.53
2019-01-22T11:43:29.442Z,3.01
2019-01-22T11:45:30.804Z,2.92
2019-01-22T11:47:32.270Z,2.82
2019-01-22T11:49:33.985Z,2.90
2019-01-22T11:51:37.249Z,3.01
2019-01-22T11:53:38.674Z,3.07
2019-01-22T11:55:40.182Z,3.02
2019-01-22T11:57:41.556Z,3.05
2019-01-22T11:59:43.215Z,2.69
2019-01-22T12:01:44.624Z,2.89
2019-01-22T12:03:46.194Z,3.23
2019-01-22T12:05:47.661Z,3.12
2019-01-22T12:07:49.079Z,3.27
2019-01-22T12:09:50.548Z,3.35
2019-01-22T12:11:51.954Z,3.39
2019-01-22T12:13:55.256Z,3.47
2019-01-22T12:15:56.761Z,3.50
2019-01-22T12:17:58.237Z,3.60
2019-01-22T12:20:01.542Z,3.31
2019-01-22T12:22:02.981Z,3.57
2019-01-22T12:24:04.471Z,3.48
2019-01-22T12:26:05.837Z,3.66
2019-01-22T12:28:07.339Z,3.72
2019-01-22T12:30:26.275Z,3.84
2019-01-22T12:32:27.853Z,3.60
2019-01-22T12:34:29.226Z,3.77
2019-01-22T12:36:30.632Z,3.60
2019-01-22T12:38:31.995Z,3.79
2019-01-22T12:40:33.510Z,3.62
2019-01-22T12:42:35.012Z,3.71
2019-01-22T12:44:36.472Z,3.55
2019-01-22T12:46:37.862Z,3.77
2019-01-22T12:48:39.289Z,3.51
2019-01-22T12:50:40.883Z,3.68
2019-01-22T12:52:42.251Z,3.53
2019-01-22T12:54:43.660Z,3.71
2019-01-22T12:56:46.067Z,3.86
2019-01-22T12:58:47.463Z,3.84
2019-01-22T13:00:48.854Z,3.70
2019-01-22T13:02:50.418Z,3.85
2019-01-22T13:04:51.841Z,4.05
2019-01-22T13:06:53.203Z,3.82
2019-01-22T13:08:54.643Z,3.68
2019-01-22T13:10:56.008Z,3.86
2019-01-22T13:12:57.478Z,3.94
2019-01-22T13:14:58.904Z,4.12
2019-01-22T13:17:00.276Z,3.50
2019-01-22T13:19:01.634Z,3.64
2019-01-22T13:21:03.304Z,3.66
2019-01-22T13:23:04.774Z,3.72
2019-01-22T13:25:09.442Z,3.61
2019-01-22T13:27:10.875Z,3.71
2019-01-22T13:29:12.336Z,3.74
2019-01-22T13:31:13.763Z,3.92
2019-01-22T13:33:15.193Z,4.03
2019-01-22T13:35:16.841Z,3.95
2019-01-22T13:37:18.200Z,4.01
2019-01-22T13:39:19.579Z,3.73
2019-01-22T13:41:21.079Z,3.88
2019-01-22T13:43:22.454Z,3.99
2019-01-22T13:45:33.183Z,3.96
2019-01-22T13:47:34.580Z,3.61
2019-01-22T13:49:35.966Z,3.52
2019-01-22T13:51:37.378Z,3.54
2019-01-22T13:53:38.856Z,3.08
2019-01-22T13:55:40.406Z,3.63
2019-01-22T13:57:41.820Z,3.29
2019-01-22T13:59:43.195Z,3.34
2019-01-22T14:01:44.566Z,3.54
2019-01-22T14:03:46.020Z,3.43
2019-01-22T14:05:47.410Z,3.50
2019-01-22T14:07:48.884Z,3.37
2019-01-22T14:09:50.372Z,3.56
2019-01-22T14:11:51.750Z,3.36
2019-01-22T14:13:53.128Z,3.17
2019-01-22T14:15:54.578Z,3.17
2019-01-22T14:17:55.960Z,3.22
2019-01-22T14:19:57.321Z,3.06
2019-01-22T14:21:59.340Z,3.08
2019-01-22T14:24:00.709Z,3.07
2019-01-22T14:26:02.240Z,3.01
2019-01-22T14:28:03.877Z,3.23
2019-01-22T14:30:11.135Z,2.92
2019-01-22T14:32:12.503Z,3.25
2019-01-22T14:34:13.880Z,3.15
2019-01-22T14:36:17.217Z,3.14
2019-01-22T14:38:18.587Z,2.84
2019-01-22T14:40:20.423Z,2.73
2019-01-22T14:42:21.891Z,2.81
2019-01-22T14:44:23.258Z,2.72
2019-01-22T14:46:24.688Z,2.66
2019-01-22T14:48:26.055Z,2.76
2019-01-22T14:50:30.632Z,2.67
2019-01-22T14:52:32.264Z,2.44
2019-01-22T14:54:33.699Z,2.42
2019-01-22T14:56:35.082Z,2.52
2019-01-22T14:58:36.451Z,2.55
2019-01-22T15:00:37.879Z,2.33
2019-01-22T15:02:39.348Z,2.25
2019-01-22T15:04:40.717Z,2.15
2019-01-22T15:06:42.141Z,2.01
2019-01-22T15:08:43.508Z,2.00
2019-01-22T15:10:44.885Z,1.91
2019-01-22T15:12:53.350Z,1.90
2019-01-22T15:14:54.711Z,1.75
2019-01-22T15:16:56.126Z,1.62
2019-01-22T15:18:57.533Z,1.54
2019-01-22T15:20:58.904Z,1.63
2019-01-22T15:23:00.433Z,1.55
2019-01-22T15:25:01.801Z,1.46
2019-01-22T15:27:03.269Z,1.30
2019-01-22T15:29:04.792Z,1.40
2019-01-22T15:31:06.153Z,1.41
2019-01-22T15:33:07.513Z,1.23
2019-01-22T15:35:10.507Z,1.13
2019-01-22T15:37:11.874Z,0.94
2019-01-22T15:39:13.244Z,0.79
2019-01-22T15:41:14.676Z,0.99
2019-01-22T15:43:16.039Z,1.01
2019-01-22T15:45:17.801Z,0.80
2019-01-22T15:47:19.233Z,0.79
2019-01-22T15:49:20.591Z,0.65
2019-01-22T15:51:22.061Z,0.60
2019-01-22T15:53:23.485Z,0.57
2019-01-22T15:55:30.927Z,0.48
2019-01-22T15:57:32.292Z,0.53
2019-01-22T15:59:33.721Z,0.55
2019-01-22T16:01:35.183Z,0.57
2019-01-22T16:03:36.546Z,0.43
2019-01-22T16:05:37.957Z,0.41
2019-01-22T16:07:39.774Z,0.30
2019-01-22T16:09:41.249Z,0.28
2019-01-22T16:11:42.720Z,0.29
2019-01-22T16:13:44.200Z,0.25
2019-01-22T16:15:45.565Z,0.31
2019-01-22T16:17:47.633Z,0.20
2019-01-22T16:19:49.146Z,0.16
2019-01-22T16:21:50.513Z,0.12
2019-01-22T16:23:52.012Z,0.22
2019-01-22T16:25:53.447Z,0.11
2019-01-22T16:27:54.796Z,-0.08
2019-01-22T16:29:56.171Z,-0.12
2019-01-22T16:31:57.582Z,-0.09
2019-01-22T16:33:59.025Z,-0.05
2019-01-22T16:36:00.451Z,-0.06
2019-01-22T16:38:01.815Z,-0.06
2019-01-22T16:40:08.387Z,-0.28
2019-01-22T16:42:09.823Z,-0.22
2019-01-22T16:44:11.185Z,-0.19
2019-01-22T16:46:12.551Z,-0.38
2019-01-22T16:48:13.964Z,-0.34
2019-01-22T16:50:15.428Z,-0.35
2019-01-22T16:52:16.845Z,-0.45
2019-01-22T16:54:18.205Z,-0.56
2019-01-22T16:56:19.567Z,-0.47
2019-01-22T16:58:21.284Z,-0.41
2019-01-22T17:00:26.741Z,-0.48
2019-01-22T17:02:28.110Z,-0.59
2019-01-22T17:04:29.532Z,-0.74
2019-01-22T17:06:31.002Z,-0.81
2019-01-22T17:08:32.421Z,-0.71
2019-01-22T17:10:34.056Z,-0.78
2019-01-22T17:12:35.402Z,-0.77
2019-01-22T17:14:36.836Z,-0.64
2019-01-22T17:16:38.265Z,-0.77
2019-01-22T17:18:39.729Z,-0.71
2019-01-22T17:20:47.554Z,-0.73
2019-01-22T17:22:44.413Z,-0.86
2019-01-22T17:24:45.782Z,-0.92
2019-01-22T17:26:47.145Z,-1.03
2019-01-22T17:28:48.592Z,-0.99
2019-01-22T17:30:49.954Z,-0.98
2019-01-22T17:32:55.901Z,-1.01
2019-01-22T17:34:57.966Z,-0.99
2019-01-22T17:36:59.338Z,-0.98
2019-01-22T17:39:00.804Z,-0.94
2019-01-22T17:41:02.174Z,-1.01
2019-01-22T17:43:04.033Z,-1.12
2019-01-22T17:45:07.468Z,-1.11
2019-01-22T17:47:08.831Z,-1.07
2019-01-22T17:49:10.189Z,-1.22
2019-01-22T17:51:11.691Z,-1.03
2019-01-22T17:53:13.058Z,-1.15
2019-01-22T17:55:14.428Z,-1.38
2019-01-22T17:57:15.854Z,-1.34
2019-01-22T17:59:17.238Z,-1.40
2019-01-22T18:01:18.597Z,-1.35
2019-01-22T18:03:20.351Z,-1.33
2019-01-22T18:05:22.121Z,-1.30
2019-01-22T18:07:23.487Z,-1.43
2019-01-22T18:09:24.903Z,-1.33
2019-01-22T18:11:26.278Z,-1.38
2019-01-22T18:13:27.651Z,-1.52
2019-01-22T18:15:29.136Z,-1.44
2019-01-22T18:17:30.511Z,-1.38
2019-01-22T18:19:31.870Z,-1.52
2019-01-22T18:21:33.466Z,-1.55
2019-01-22T18:23:34.834Z,-1.80
2019-01-22T18:25:36.192Z,-1.72
2019-01-22T18:27:37.620Z,-1.59
2019-01-22T18:29:39.055Z,-1.61
2019-01-22T18:31:40.422Z,-1.56
2019-01-22T18:33:41.786Z,-1.65
2019-01-22T18:35:43.191Z,-1.68
2019-01-22T18:37:44.551Z,-1.75
2019-01-22T18:39:45.991Z,-1.73
2019-01-22T18:41:47.338Z,-1.69
2019-01-22T18:43:48.719Z,-1.67
2019-01-22T18:45:50.318Z,-1.83
2019-01-22T18:47:51.676Z,-1.97
2019-01-22T18:49:53.041Z,-1.86
2019-01-22T18:51:54.464Z,-1.90
2019-01-22T18:53:55.832Z,-1.90
2019-01-22T18:55:57.254Z,-1.99
2019-01-22T18:57:58.683Z,-1.91
2019-01-22T19:00:00.037Z,-1.97
2019-01-22T19:02:01.404Z,-2.07
2019-01-22T19:04:04.021Z,-2.02
2019-01-22T19:06:05.390Z,-1.98
2019-01-22T19:08:07.006Z,-2.04
2019-01-22T19:10:16.081Z,-2.16
2019-01-22T19:12:17.447Z,-2.12
2019-01-22T19:14:18.870Z,-2.12
2019-01-22T19:16:20.356Z,-2.21
2019-01-22T19:18:21.726Z,-2.39
2019-01-22T19:20:23.087Z,-2.34
2019-01-22T19:22:24.491Z,-2.33
2019-01-22T19:24:25.850Z,-2.35
2019-01-22T19:26:27.210Z,-2.32
2019-01-22T19:28:28.627Z,-2.35
2019-01-22T19:30:30.497Z,-2.28
2019-01-22T19:32:31.852Z,-2.40
2019-01-22T19:34:33.289Z,-2.40
2019-01-22T19:36:34.647Z,-2.40
2019-01-22T19:38:36.050Z,-2.51
2019-01-22T19:40:37.563Z,-2.37
2019-01-22T19:42:39.039Z,-2.39
2019-01-22T19:44:40.393Z,-2.54
2019-01-22T19:46:41.829Z,-2.57
2019-01-22T19:48:43.195Z,-2.60
2019-01-22T19:50:44.559Z,-2.47
2019-01-22T19:52:45.979Z,-2.47
2019-01-22T19:54:47.336Z,-2.48
2019-01-22T19:56:48.763Z,-2.42
2019-01-22T19:58:50.126Z,-2.59
2019-01-22T20:00:51.488Z,-2.71
2019-01-22T20:02:53.144Z,-2.75
2019-01-22T20:04:54.510Z,-2.66
2019-01-22T20:06:55.988Z,-2.71
2019-01-22T20:08:57.421Z,-2.73
2019-01-22T20:10:58.798Z,-2.58
2019-01-22T20:13:00.162Z,-2.65
2019-01-22T20:15:01.952Z,-2.61
2019-01-22T20:17:03.389Z,-2.66
2019-01-22T20:19:04.762Z,-2.81
2019-01-22T20:21:06.188Z,-2.68
2019-01-22T20:23:07.568Z,-2.79
2019-01-22T20:25:09.216Z,-2.84
2019-01-22T20:27:10.728Z,-2.80
2019-01-22T20:29:12.190Z,-2.80
2019-01-22T20:31:14.074Z,-2.88
2019-01-22T20:33:15.441Z,-2.84
2019-01-22T20:35:16.931Z,-2.78
2019-01-22T20:37:18.356Z,-2.93
2019-01-22T20:39:19.782Z,-2.91
2019-01-22T20:41:21.141Z,-2.81
2019-01-22T20:43:22.505Z,-2.83
2019-01-22T20:45:27.561Z,-3.04
2019-01-22T20:47:28.932Z,-2.88
2019-01-22T20:49:30.307Z,-2.87
2019-01-22T20:51:31.743Z,-2.96
2019-01-22T20:53:33.092Z,-3.00
2019-01-22T20:55:34.465Z,-3.13
2019-01-22T20:57:35.885Z,-3.24
2019-01-22T20:59:37.255Z,-3.26
2019-01-22T21:01:38.922Z,-3.26
2019-01-22T21:03:40.345Z,-3.26
2019-01-22T21:05:41.707Z,-3.12
2019-01-22T21:07:43.166Z,-3.18
2019-01-22T21:09:44.936Z,-3.24
2019-01-22T21:11:46.304Z,-3.25
2019-01-22T21:13:47.671Z,-3.32
2019-01-22T21:15:49.285Z,-3.29
2019-01-22T21:17:50.653Z,-3.38
2019-01-22T21:19:52.018Z,-3.34
2019-01-22T21:21:53.448Z,-3.36
2019-01-22T21:23:54.803Z,-3.34
2019-01-22T21:25:56.172Z,-3.26
2019-01-22T21:28:01.606Z,-3.25
2019-01-22T21:30:00.854Z,-3.47
2019-01-22T21:32:04.233Z,-3.47
2019-01-22T21:34:05.652Z,-3.41
2019-01-22T21:36:07.117Z,-3.47
2019-01-22T21:38:08.841Z,-3.42
2019-01-22T21:40:13.118Z,-3.47
2019-01-22T21:42:14.475Z,-3.47
2019-01-22T21:44:15.994Z,-3.42
2019-01-22T21:46:17.367Z,-3.53
2019-01-22T21:48:18.800Z,-3.49
2019-01-22T21:50:20.376Z,-3.52
2019-01-22T21:52:21.733Z,-3.55
2019-01-22T21:54:23.160Z,-3.57
2019-01-22T21:56:24.592Z,-3.61
2019-01-22T21:58:25.953Z,-3.75
2019-01-22T22:00:27.524Z,-3.59
2019-01-22T22:02:28.934Z,-3.56
2019-01-22T22:04:30.304Z,-3.58
2019-01-22T22:06:31.671Z,-3.62
2019-01-22T22:08:33.167Z,-3.80
2019-01-22T22:10:34.725Z,-3.88
2019-01-22T22:12:36.144Z,-3.88
2019-01-22T22:14:37.606Z,-3.92
2019-01-22T22:16:38.997Z,-3.87
2019-01-22T22:18:40.398Z,-3.78
2019-01-22T22:20:42.620Z,-3.87
2019-01-22T22:22:44.389Z,-3.76
2019-01-22T22:24:45.749Z,-3.76
2019-01-22T22:26:47.142Z,-3.86
2019-01-22T22:28:48.536Z,-3.88
2019-01-22T22:30:49.897Z,-3.84
2019-01-22T22:32:51.396Z,-4.18
2019-01-22T22:34:52.766Z,-4.11
2019-01-22T22:36:54.127Z,-4.12
2019-01-22T22:38:55.732Z,-3.96
2019-01-22T22:40:57.081Z,-4.16
2019-01-22T22:42:58.450Z,-4.16
2019-01-22T22:44:59.839Z,-4.11
2019-01-22T22:47:01.213Z,-3.96
2019-01-22T22:49:02.570Z,-4.04
2019-01-22T22:51:03.966Z,-4.09
2019-01-22T22:53:05.329Z,-4.10
2019-01-22T22:55:06.791Z,-4.07
2019-01-22T22:57:08.191Z,-4.24
2019-01-22T22:59:09.554Z,-4.07
2019-01-22T23:01:16.647Z,-4.08
2019-01-22T23:03:18.017Z,-4.19
2019-01-22T23:05:19.416Z,-4.05
2019-01-22T23:07:20.819Z,-4.28
2019-01-22T23:09:22.204Z,-4.10
2019-01-22T23:11:23.573Z,-4.16
2019-01-22T23:13:24.966Z,-4.23
2019-01-22T23:15:26.341Z,-4.06
2019-01-22T23:17:27.702Z,-4.15
2019-01-22T23:19:29.100Z,-4.31
2019-01-22T23:21:30.573Z,-4.32
2019-01-22T23:23:31.977Z,-4.30
2019-01-22T23:25:33.356Z,-4.32
2019-01-22T23:27:34.726Z,-4.48
2019-01-22T23:29:36.128Z,-4.35
2019-01-22T23:31:37.493Z,-4.29
2019-01-22T23:33:38.861Z,-4.28
2019-01-22T23:35:40.760Z,-4.27
2019-01-22T23:37:42.125Z,-4.45
2019-01-22T23:39:43.487Z,-4.41
2019-01-22T23:41:44.883Z,-4.35
2019-01-22T23:43:46.281Z,-4.36
2019-01-22T23:45:47.630Z,-4.46
2019-01-22T23:47:49.018Z,-4.30
2019-01-22T23:49:50.380Z,-4.45
2019-01-22T23:51:52.448Z,-4.34
2019-01-22T23:53:53.794Z,-4.46
2019-01-22T23:55:55.144Z,-4.49
2019-01-22T23:57:56.563Z,-4.47
2019-01-22T23:59:58.146Z,-4.39
